sensor_id;sensor_type;location;lat;lon;timestamp;P1;durP1;ratioP1;P2;durP2;ratioP2
33154;SDS011;19511;42.682;23.332;2023-03-23T00:01:11;47.42;;;19.65;;
33154;SDS011;19511;42.682;23.332;2023-03-23T00:03:38;38.28;;;18.48;;
33154;SDS011;19511;42.682;23.332;2023-03-23T00:06:05;35.33;;;17.55;;
33154;SDS011;19511;42.682;23.332;2023-03-23T00:08:32;37.58;;;17.38;;
33154;SDS011;19511;42.682;23.332;2023-03-23T00:11:02;33.08;;;16.20;;
33154;SDS011;19511;42.682;23.332;2023-03-23T00:13:29;34.75;;;17.63;;
33154;SDS011;19511;42.682;23.332;2023-03-23T00:15:54;37.67;;;16.70;;
33154;SDS011;19511;42.682;23.332;2023-03-23T00:18:22;43.88;;;17.30;;
33154;SDS011;19511;42.682;23.332;2023-03-23T00:20:49;37.22;;;16.38;;
33154;SDS011;19511;42.682;23.332;2023-03-23T00:23:19;33.10;;;16.92;;
33154;SDS011;19511;42.682;23.332;2023-03-23T00:25:48;44.65;;;14.77;;
33154;SDS011;19511;42.682;23.332;2023-03-23T00:28:24;37.65;;;16.17;;
33154;SDS011;19511;42.682;23.332;2023-03-23T00:30:57;41.97;;;16.95;;
33154;SDS011;19511;42.682;23.332;2023-03-23T00:33:28;46.13;;;18.67;;
33154;SDS011;19511;42.682;23.332;2023-03-23T00:36:12;36.10;;;15.98;;
33154;SDS011;19511;42.682;23.332;2023-03-23T00:38:39;36.90;;;15.30;;
33154;SDS011;19511;42.682;23.332;2023-03-23T00:41:06;34.10;;;16.00;;
33154;SDS011;19511;42.682;23.332;2023-03-23T00:43:32;38.42;;;16.58;;
33154;SDS011;19511;42.682;23.332;2023-03-23T00:46:01;39.30;;;17.48;;
33154;SDS011;19511;42.682;23.332;2023-03-23T00:48:28;33.67;;;17.50;;
33154;SDS011;19511;42.682;23.332;2023-03-23T00:50:54;47.40;;;17.17;;
33154;SDS011;19511;42.682;23.332;2023-03-23T00:53:20;41.15;;;16.52;;
33154;SDS011;19511;42.682;23.332;2023-03-23T00:55:47;36.78;;;17.20;;
33154;SDS011;19511;42.682;23.332;2023-03-23T00:58:14;41.97;;;15.60;;
33154;SDS011;19511;42.682;23.332;2023-03-23T01:00:40;28.05;;;15.15;;
33154;SDS011;19511;42.682;23.332;2023-03-23T01:03:07;37.08;;;17.27;;
33154;SDS011;19511;42.682;23.332;2023-03-23T01:05:43;36.95;;;16.77;;
33154;SDS011;19511;42.682;23.332;2023-03-23T01:08:12;42.60;;;20.20;;
33154;SDS011;19511;42.682;23.332;2023-03-23T01:10:39;37.75;;;17.15;;
33154;SDS011;19511;42.682;23.332;2023-03-23T01:13:05;48.40;;;19.08;;
33154;SDS011;19511;42.682;23.332;2023-03-23T01:15:32;40.58;;;17.67;;
33154;SDS011;19511;42.682;23.332;2023-03-23T01:17:57;41.00;;;17.50;;
33154;SDS011;19511;42.682;23.332;2023-03-23T01:20:23;38.65;;;16.08;;
33154;SDS011;19511;42.682;23.332;2023-03-23T01:22:51;44.58;;;18.60;;
33154;SDS011;19511;42.682;23.332;2023-03-23T01:25:17;40.72;;;17.05;;
33154;SDS011;19511;42.682;23.332;2023-03-23T01:27:43;38.28;;;15.80;;
33154;SDS011;19511;42.682;23.332;2023-03-23T01:30:13;46.10;;;19.02;;
33154;SDS011;19511;42.682;23.332;2023-03-23T01:32:41;38.80;;;17.45;;
33154;SDS011;19511;42.682;23.332;2023-03-23T01:35:14;65.68;;;17.02;;
33154;SDS011;19511;42.682;23.332;2023-03-23T01:37:40;52.72;;;19.60;;
33154;SDS011;19511;42.682;23.332;2023-03-23T01:40:06;38.58;;;17.30;;
33154;SDS011;19511;42.682;23.332;2023-03-23T01:42:33;39.83;;;17.45;;
33154;SDS011;19511;42.682;23.332;2023-03-23T01:50:57;39.13;;;17.35;;
33154;SDS011;19511;42.682;23.332;2023-03-23T01:53:28;49.25;;;18.23;;
33154;SDS011;19511;42.682;23.332;2023-03-23T01:55:59;38.22;;;18.77;;
33154;SDS011;19511;42.682;23.332;2023-03-23T01:58:27;41.00;;;17.95;;
33154;SDS011;19511;42.682;23.332;2023-03-23T02:00:56;38.83;;;17.15;;
33154;SDS011;19511;42.682;23.332;2023-03-23T02:03:25;33.72;;;16.73;;
33154;SDS011;19511;42.682;23.332;2023-03-23T02:05:53;45.53;;;18.10;;
33154;SDS011;19511;42.682;23.332;2023-03-23T02:08:23;35.30;;;17.70;;
33154;SDS011;19511;42.682;23.332;2023-03-23T02:10:53;37.22;;;17.33;;
33154;SDS011;19511;42.682;23.332;2023-03-23T02:13:18;38.63;;;16.75;;
33154;SDS011;19511;42.682;23.332;2023-03-23T02:16:32;33.15;;;13.00;;
33154;SDS011;19511;42.682;23.332;2023-03-23T02:24:39;35.85;;;15.60;;
33154;SDS011;19511;42.682;23.332;2023-03-23T02:27:08;38.85;;;15.05;;
33154;SDS011;19511;42.682;23.332;2023-03-23T02:37:52;35.78;;;15.30;;
33154;SDS011;19511;42.682;23.332;2023-03-23T02:40:25;33.72;;;14.95;;
33154;SDS011;19511;42.682;23.332;2023-03-23T02:42:55;30.27;;;14.10;;
33154;SDS011;19511;42.682;23.332;2023-03-23T02:45:22;35.88;;;16.13;;
33154;SDS011;19511;42.682;23.332;2023-03-23T02:47:52;29.67;;;15.02;;
33154;SDS011;19511;42.682;23.332;2023-03-23T02:50:20;37.95;;;16.30;;
33154;SDS011;19511;42.682;23.332;2023-03-23T02:52:49;35.40;;;14.02;;
33154;SDS011;19511;42.682;23.332;2023-03-23T02:55:17;35.45;;;16.17;;
33154;SDS011;19511;42.682;23.332;2023-03-23T02:57:45;42.58;;;18.38;;
33154;SDS011;19511;42.682;23.332;2023-03-23T03:00:12;38.60;;;17.08;;
33154;SDS011;19511;42.682;23.332;2023-03-23T03:02:40;40.35;;;16.25;;
33154;SDS011;19511;42.682;23.332;2023-03-23T03:05:21;34.97;;;16.73;;
33154;SDS011;19511;42.682;23.332;2023-03-23T03:10:42;29.75;;;12.93;;
33154;SDS011;19511;42.682;23.332;2023-03-23T03:15:56;27.13;;;12.75;;
33154;SDS011;19511;42.682;23.332;2023-03-23T03:18:28;30.58;;;12.07;;
33154;SDS011;19511;42.682;23.332;2023-03-23T03:21:21;31.50;;;13.05;;
33154;SDS011;19511;42.682;23.332;2023-03-23T03:23:53;30.48;;;12.85;;
33154;SDS011;19511;42.682;23.332;2023-03-23T03:26:21;21.17;;;10.65;;
33154;SDS011;19511;42.682;23.332;2023-03-23T03:28:51;26.45;;;11.43;;
33154;SDS011;19511;42.682;23.332;2023-03-23T03:31:18;22.88;;;9.70;;
33154;SDS011;19511;42.682;23.332;2023-03-23T03:33:46;19.70;;;9.80;;
33154;SDS011;19511;42.682;23.332;2023-03-23T03:36:16;23.95;;;11.77;;
33154;SDS011;19511;42.682;23.332;2023-03-23T03:38:46;22.40;;;11.15;;
33154;SDS011;19511;42.682;23.332;2023-03-23T03:41:15;22.23;;;10.63;;
33154;SDS011;19511;42.682;23.332;2023-03-23T03:43:41;21.80;;;10.77;;
33154;SDS011;19511;42.682;23.332;2023-03-23T03:46:07;24.15;;;11.88;;
33154;SDS011;19511;42.682;23.332;2023-03-23T03:48:32;17.17;;;9.18;;
33154;SDS011;19511;42.682;23.332;2023-03-23T03:50:58;16.98;;;7.72;;
33154;SDS011;19511;42.682;23.332;2023-03-23T03:53:25;21.40;;;8.88;;
33154;SDS011;19511;42.682;23.332;2023-03-23T03:55:53;16.05;;;8.20;;
33154;SDS011;19511;42.682;23.332;2023-03-23T03:58:21;15.82;;;7.68;;
33154;SDS011;19511;42.682;23.332;2023-03-23T04:00:48;23.52;;;10.40;;
33154;SDS011;19511;42.682;23.332;2023-03-23T04:03:14;14.20;;;7.68;;
33154;SDS011;19511;42.682;23.332;2023-03-23T04:05:40;26.23;;;11.00;;
33154;SDS011;19511;42.682;23.332;2023-03-23T04:08:09;21.85;;;11.50;;
33154;SDS011;19511;42.682;23.332;2023-03-23T04:10:36;20.70;;;9.35;;
33154;SDS011;19511;42.682;23.332;2023-03-23T04:13:02;33.15;;;12.23;;
33154;SDS011;19511;42.682;23.332;2023-03-23T04:15:29;26.08;;;10.38;;
33154;SDS011;19511;42.682;23.332;2023-03-23T04:17:55;20.95;;;10.13;;
33154;SDS011;19511;42.682;23.332;2023-03-23T04:20:21;28.40;;;12.10;;
33154;SDS011;19511;42.682;23.332;2023-03-23T04:22:47;19.95;;;9.95;;
33154;SDS011;19511;42.682;23.332;2023-03-23T04:25:17;21.30;;;9.18;;
33154;SDS011;19511;42.682;23.332;2023-03-23T04:27:46;23.30;;;10.82;;
33154;SDS011;19511;42.682;23.332;2023-03-23T04:30:18;19.65;;;9.45;;
33154;SDS011;19511;42.682;23.332;2023-03-23T04:32:49;28.33;;;11.73;;
33154;SDS011;19511;42.682;23.332;2023-03-23T04:35:20;32.80;;;12.60;;
33154;SDS011;19511;42.682;23.332;2023-03-23T04:37:49;26.38;;;12.40;;
33154;SDS011;19511;42.682;23.332;2023-03-23T04:40:15;24.85;;;12.18;;
33154;SDS011;19511;42.682;23.332;2023-03-23T04:42:42;63.17;;;24.13;;
33154;SDS011;19511;42.682;23.332;2023-03-23T04:45:15;65.55;;;22.85;;
33154;SDS011;19511;42.682;23.332;2023-03-23T04:47:46;39.38;;;17.27;;
33154;SDS011;19511;42.682;23.332;2023-03-23T04:50:23;27.50;;;13.93;;
33154;SDS011;19511;42.682;23.332;2023-03-23T04:52:53;29.08;;;12.63;;
33154;SDS011;19511;42.682;23.332;2023-03-23T04:55:21;25.38;;;12.95;;
33154;SDS011;19511;42.682;23.332;2023-03-23T04:57:47;25.70;;;11.77;;
33154;SDS011;19511;42.682;23.332;2023-03-23T05:00:12;25.95;;;11.75;;
33154;SDS011;19511;42.682;23.332;2023-03-23T05:02:41;29.77;;;11.63;;
33154;SDS011;19511;42.682;23.332;2023-03-23T05:05:12;25.77;;;12.35;;
33154;SDS011;19511;42.682;23.332;2023-03-23T05:07:39;30.23;;;14.40;;
33154;SDS011;19511;42.682;23.332;2023-03-23T05:10:05;29.02;;;12.70;;
33154;SDS011;19511;42.682;23.332;2023-03-23T05:12:32;17.60;;;10.80;;
33154;SDS011;19511;42.682;23.332;2023-03-23T05:14:58;21.10;;;10.60;;
33154;SDS011;19511;42.682;23.332;2023-03-23T05:17:23;21.83;;;11.85;;
33154;SDS011;19511;42.682;23.332;2023-03-23T05:19:52;32.83;;;12.02;;
33154;SDS011;19511;42.682;23.332;2023-03-23T05:22:18;21.38;;;10.55;;
33154;SDS011;19511;42.682;23.332;2023-03-23T05:24:46;26.38;;;10.75;;
33154;SDS011;19511;42.682;23.332;2023-03-23T05:27:12;23.90;;;11.75;;
33154;SDS011;19511;42.682;23.332;2023-03-23T05:29:39;24.95;;;10.15;;
33154;SDS011;19511;42.682;23.332;2023-03-23T05:32:09;18.60;;;10.45;;
33154;SDS011;19511;42.682;23.332;2023-03-23T05:34:35;23.98;;;10.93;;
33154;SDS011;19511;42.682;23.332;2023-03-23T05:37:01;24.58;;;11.27;;
33154;SDS011;19511;42.682;23.332;2023-03-23T05:39:28;29.38;;;11.52;;
33154;SDS011;19511;42.682;23.332;2023-03-23T05:41:54;45.38;;;11.98;;
33154;SDS011;19511;42.682;23.332;2023-03-23T05:44:20;29.30;;;13.50;;
33154;SDS011;19511;42.682;23.332;2023-03-23T05:46:46;26.85;;;12.52;;
33154;SDS011;19511;42.682;23.332;2023-03-23T05:49:12;29.58;;;10.95;;
33154;SDS011;19511;42.682;23.332;2023-03-23T05:51:38;30.88;;;10.80;;
33154;SDS011;19511;42.682;23.332;2023-03-23T05:54:04;27.48;;;11.18;;
33154;SDS011;19511;42.682;23.332;2023-03-23T05:56:30;26.60;;;11.73;;
33154;SDS011;19511;42.682;23.332;2023-03-23T05:58:56;27.83;;;13.50;;
33154;SDS011;19511;42.682;23.332;2023-03-23T06:01:26;47.83;;;13.43;;
33154;SDS011;19511;42.682;23.332;2023-03-23T06:03:52;32.65;;;12.45;;
33154;SDS011;19511;42.682;23.332;2023-03-23T06:06:21;20.23;;;11.27;;
33154;SDS011;19511;42.682;23.332;2023-03-23T06:08:47;27.13;;;11.40;;
33154;SDS011;19511;42.682;23.332;2023-03-23T06:11:15;26.58;;;12.55;;
33154;SDS011;19511;42.682;23.332;2023-03-23T06:13:41;27.33;;;14.07;;
33154;SDS011;19511;42.682;23.332;2023-03-23T06:16:07;29.02;;;12.82;;
33154;SDS011;19511;42.682;23.332;2023-03-23T06:18:33;26.42;;;10.68;;
33154;SDS011;19511;42.682;23.332;2023-03-23T06:21:02;27.88;;;13.13;;
33154;SDS011;19511;42.682;23.332;2023-03-23T06:23:28;30.92;;;14.02;;
33154;SDS011;19511;42.682;23.332;2023-03-23T06:25:58;28.63;;;13.68;;
33154;SDS011;19511;42.682;23.332;2023-03-23T06:28:25;30.73;;;15.20;;
33154;SDS011;19511;42.682;23.332;2023-03-23T06:30:52;22.63;;;13.25;;
33154;SDS011;19511;42.682;23.332;2023-03-23T06:33:18;40.80;;;15.48;;
33154;SDS011;19511;42.682;23.332;2023-03-23T06:35:47;34.50;;;16.15;;
33154;SDS011;19511;42.682;23.332;2023-03-23T06:38:13;34.55;;;15.73;;
33154;SDS011;19511;42.682;23.332;2023-03-23T06:40:39;26.73;;;15.50;;
33154;SDS011;19511;42.682;23.332;2023-03-23T06:43:06;31.98;;;16.17;;
33154;SDS011;19511;42.682;23.332;2023-03-23T06:45:31;30.83;;;14.95;;
33154;SDS011;19511;42.682;23.332;2023-03-23T06:47:57;31.67;;;14.73;;
33154;SDS011;19511;42.682;23.332;2023-03-23T06:50:22;37.38;;;16.75;;
33154;SDS011;19511;42.682;23.332;2023-03-23T06:52:49;36.70;;;15.88;;
33154;SDS011;19511;42.682;23.332;2023-03-23T06:55:16;31.48;;;15.55;;
33154;SDS011;19511;42.682;23.332;2023-03-23T06:57:42;36.15;;;16.55;;
33154;SDS011;19511;42.682;23.332;2023-03-23T07:00:09;32.63;;;15.82;;
33154;SDS011;19511;42.682;23.332;2023-03-23T07:02:37;31.38;;;15.30;;
33154;SDS011;19511;42.682;23.332;2023-03-23T07:05:03;36.03;;;15.73;;
33154;SDS011;19511;42.682;23.332;2023-03-23T07:07:29;29.65;;;14.13;;
33154;SDS011;19511;42.682;23.332;2023-03-23T07:09:56;36.95;;;15.00;;
33154;SDS011;19511;42.682;23.332;2023-03-23T07:12:21;27.60;;;13.32;;
33154;SDS011;19511;42.682;23.332;2023-03-23T07:14:50;30.33;;;12.98;;
33154;SDS011;19511;42.682;23.332;2023-03-23T07:17:16;23.45;;;12.55;;
33154;SDS011;19511;42.682;23.332;2023-03-23T07:19:41;22.70;;;12.45;;
33154;SDS011;19511;42.682;23.332;2023-03-23T07:22:07;39.20;;;13.25;;
33154;SDS011;19511;42.682;23.332;2023-03-23T07:24:33;23.58;;;12.70;;
33154;SDS011;19511;42.682;23.332;2023-03-23T07:26:59;22.83;;;12.13;;
33154;SDS011;19511;42.682;23.332;2023-03-23T07:29:25;19.55;;;11.05;;
33154;SDS011;19511;42.682;23.332;2023-03-23T07:31:54;29.55;;;11.57;;
33154;SDS011;19511;42.682;23.332;2023-03-23T07:34:20;22.60;;;11.40;;
33154;SDS011;19511;42.682;23.332;2023-03-23T07:36:45;26.20;;;12.60;;
33154;SDS011;19511;42.682;23.332;2023-03-23T07:39:11;21.23;;;11.98;;
33154;SDS011;19511;42.682;23.332;2023-03-23T07:41:38;21.27;;;11.40;;
33154;SDS011;19511;42.682;23.332;2023-03-23T07:44:04;22.35;;;10.48;;
33154;SDS011;19511;42.682;23.332;2023-03-23T07:46:30;22.63;;;11.20;;
33154;SDS011;19511;42.682;23.332;2023-03-23T07:48:57;38.45;;;12.73;;
33154;SDS011;19511;42.682;23.332;2023-03-23T07:51:23;24.73;;;12.82;;
33154;SDS011;19511;42.682;23.332;2023-03-23T07:53:51;20.33;;;10.18;;
33154;SDS011;19511;42.682;23.332;2023-03-23T07:56:17;26.15;;;11.07;;
33154;SDS011;19511;42.682;23.332;2023-03-23T07:58:45;23.35;;;11.80;;
33154;SDS011;19511;42.682;23.332;2023-03-23T08:01:11;26.42;;;11.52;;
33154;SDS011;19511;42.682;23.332;2023-03-23T08:03:37;25.25;;;11.07;;
33154;SDS011;19511;42.682;23.332;2023-03-23T08:06:03;23.75;;;11.65;;
33154;SDS011;19511;42.682;23.332;2023-03-23T08:08:29;34.47;;;12.68;;
33154;SDS011;19511;42.682;23.332;2023-03-23T08:10:55;20.02;;;10.27;;
33154;SDS011;19511;42.682;23.332;2023-03-23T08:13:20;18.92;;;9.73;;
33154;SDS011;19511;42.682;23.332;2023-03-23T08:15:46;24.52;;;10.95;;
33154;SDS011;19511;42.682;23.332;2023-03-23T08:18:11;30.65;;;10.10;;
33154;SDS011;19511;42.682;23.332;2023-03-23T08:20:37;35.13;;;11.07;;
33154;SDS011;19511;42.682;23.332;2023-03-23T08:23:03;15.05;;;7.93;;
33154;SDS011;19511;42.682;23.332;2023-03-23T08:25:29;19.20;;;9.20;;
33154;SDS011;19511;42.682;23.332;2023-03-23T08:27:59;18.50;;;8.63;;
33154;SDS011;19511;42.682;23.332;2023-03-23T08:30:27;20.08;;;9.18;;
33154;SDS011;19511;42.682;23.332;2023-03-23T08:32:55;17.05;;;8.52;;
33154;SDS011;19511;42.682;23.332;2023-03-23T08:35:25;18.17;;;9.32;;
33154;SDS011;19511;42.682;23.332;2023-03-23T08:37:50;18.98;;;9.60;;
33154;SDS011;19511;42.682;23.332;2023-03-23T08:40:18;20.65;;;8.85;;
33154;SDS011;19511;42.682;23.332;2023-03-23T08:42:48;42.47;;;9.30;;
33154;SDS011;19511;42.682;23.332;2023-03-23T08:45:16;22.20;;;9.80;;
33154;SDS011;19511;42.682;23.332;2023-03-23T08:47:44;20.63;;;8.13;;
33154;SDS011;19511;42.682;23.332;2023-03-23T08:50:15;15.35;;;8.50;;
33154;SDS011;19511;42.682;23.332;2023-03-23T08:52:43;18.52;;;7.78;;
33154;SDS011;19511;42.682;23.332;2023-03-23T08:55:08;7.63;;;4.15;;
33154;SDS011;19511;42.682;23.332;2023-03-23T08:57:35;9.48;;;4.80;;
33154;SDS011;19511;42.682;23.332;2023-03-23T09:00:05;8.05;;;4.47;;
33154;SDS011;19511;42.682;23.332;2023-03-23T09:02:44;8.57;;;4.53;;
33154;SDS011;19511;42.682;23.332;2023-03-23T09:05:12;8.77;;;4.35;;
33154;SDS011;19511;42.682;23.332;2023-03-23T09:07:39;9.43;;;3.83;;
33154;SDS011;19511;42.682;23.332;2023-03-23T09:10:07;9.48;;;4.30;;
33154;SDS011;19511;42.682;23.332;2023-03-23T09:12:36;6.30;;;3.22;;
33154;SDS011;19511;42.682;23.332;2023-03-23T09:15:05;8.63;;;5.00;;
33154;SDS011;19511;42.682;23.332;2023-03-23T09:17:33;10.48;;;4.97;;
33154;SDS011;19511;42.682;23.332;2023-03-23T09:20:00;7.55;;;4.53;;
33154;SDS011;19511;42.682;23.332;2023-03-23T09:22:28;7.72;;;4.22;;
33154;SDS011;19511;42.682;23.332;2023-03-23T09:24:54;6.93;;;4.25;;
33154;SDS011;19511;42.682;23.332;2023-03-23T09:27:19;15.98;;;4.07;;
33154;SDS011;19511;42.682;23.332;2023-03-23T09:29:44;12.32;;;5.88;;
33154;SDS011;19511;42.682;23.332;2023-03-23T09:32:15;11.32;;;5.22;;
33154;SDS011;19511;42.682;23.332;2023-03-23T09:34:40;9.55;;;3.92;;
33154;SDS011;19511;42.682;23.332;2023-03-23T09:37:06;10.63;;;4.10;;
33154;SDS011;19511;42.682;23.332;2023-03-23T09:39:32;13.75;;;4.00;;
33154;SDS011;19511;42.682;23.332;2023-03-23T09:45:15;10.70;;;4.65;;
33154;SDS011;19511;42.682;23.332;2023-03-23T09:50:42;11.55;;;4.60;;
33154;SDS011;19511;42.682;23.332;2023-03-23T09:53:16;10.90;;;4.63;;
33154;SDS011;19511;42.682;23.332;2023-03-23T09:55:45;9.60;;;4.68;;
33154;SDS011;19511;42.682;23.332;2023-03-23T09:58:22;7.75;;;4.50;;
33154;SDS011;19511;42.682;23.332;2023-03-23T10:01:12;7.63;;;4.30;;
33154;SDS011;19511;42.682;23.332;2023-03-23T10:03:40;8.77;;;3.95;;
33154;SDS011;19511;42.682;23.332;2023-03-23T10:06:09;9.13;;;4.38;;
33154;SDS011;19511;42.682;23.332;2023-03-23T10:08:39;9.43;;;4.13;;
33154;SDS011;19511;42.682;23.332;2023-03-23T10:16:39;7.93;;;4.25;;
33154;SDS011;19511;42.682;23.332;2023-03-23T10:22:14;9.82;;;3.80;;
33154;SDS011;19511;42.682;23.332;2023-03-23T10:24:51;8.43;;;3.80;;
33154;SDS011;19511;42.682;23.332;2023-03-23T10:30:21;8.35;;;4.32;;
33154;SDS011;19511;42.682;23.332;2023-03-23T10:35:35;7.28;;;3.38;;
33154;SDS011;19511;42.682;23.332;2023-03-23T10:38:22;13.45;;;4.53;;
33154;SDS011;19511;42.682;23.332;2023-03-23T10:40:58;8.25;;;3.95;;
33154;SDS011;19511;42.682;23.332;2023-03-23T10:43:29;9.07;;;4.22;;
33154;SDS011;19511;42.682;23.332;2023-03-23T10:46:14;6.32;;;3.88;;
33154;SDS011;19511;42.682;23.332;2023-03-23T10:48:40;7.68;;;4.25;;
33154;SDS011;19511;42.682;23.332;2023-03-23T10:51:10;16.05;;;4.25;;
33154;SDS011;19511;42.682;23.332;2023-03-23T10:56:24;9.50;;;3.60;;
33154;SDS011;19511;42.682;23.332;2023-03-23T10:58:59;9.07;;;4.00;;
33154;SDS011;19511;42.682;23.332;2023-03-23T11:01:29;10.20;;;4.25;;
33154;SDS011;19511;42.682;23.332;2023-03-23T11:03:57;4.63;;;3.03;;
33154;SDS011;19511;42.682;23.332;2023-03-23T11:06:44;14.43;;;3.47;;
33154;SDS011;19511;42.682;23.332;2023-03-23T11:09:12;9.65;;;3.53;;
33154;SDS011;19511;42.682;23.332;2023-03-23T11:11:41;5.95;;;3.10;;
33154;SDS011;19511;42.682;23.332;2023-03-23T11:14:16;6.68;;;3.08;;
33154;SDS011;19511;42.682;23.332;2023-03-23T11:16:59;6.05;;;3.53;;
33154;SDS011;19511;42.682;23.332;2023-03-23T11:24:31;7.68;;;3.58;;
33154;SDS011;19511;42.682;23.332;2023-03-23T11:26:58;5.05;;;3.20;;
33154;SDS011;19511;42.682;23.332;2023-03-23T11:29:26;4.53;;;2.90;;
33154;SDS011;19511;42.682;23.332;2023-03-23T11:32:14;9.05;;;3.97;;
33154;SDS011;19511;42.682;23.332;2023-03-23T11:34:44;11.70;;;3.90;;
33154;SDS011;19511;42.682;23.332;2023-03-23T11:42:25;6.50;;;3.45;;
33154;SDS011;19511;42.682;23.332;2023-03-23T11:45:20;6.88;;;3.80;;
33154;SDS011;19511;42.682;23.332;2023-03-23T12:04:26;6.60;;;3.10;;
33154;SDS011;19511;42.682;23.332;2023-03-23T12:10:49;6.15;;;3.53;;
33154;SDS011;19511;42.682;23.332;2023-03-23T12:24:21;5.90;;;3.22;;
33154;SDS011;19511;42.682;23.332;2023-03-23T12:32:42;7.57;;;3.45;;
33154;SDS011;19511;42.682;23.332;2023-03-23T12:35:21;5.47;;;3.20;;
33154;SDS011;19511;42.682;23.332;2023-03-23T12:43:57;9.65;;;2.90;;
33154;SDS011;19511;42.682;23.332;2023-03-23T12:58:10;6.22;;;3.50;;
33154;SDS011;19511;42.682;23.332;2023-03-23T13:03:15;7.25;;;3.08;;
33154;SDS011;19511;42.682;23.332;2023-03-23T13:06:04;6.60;;;2.55;;
33154;SDS011;19511;42.682;23.332;2023-03-23T13:11:05;6.53;;;3.33;;
33154;SDS011;19511;42.682;23.332;2023-03-23T13:13:47;5.68;;;3.20;;
33154;SDS011;19511;42.682;23.332;2023-03-23T13:22:05;13.55;;;3.45;;
33154;SDS011;19511;42.682;23.332;2023-03-23T13:24:38;5.57;;;3.28;;
33154;SDS011;19511;42.682;23.332;2023-03-23T13:27:16;5.72;;;3.00;;
33154;SDS011;19511;42.682;23.332;2023-03-23T13:29:49;4.75;;;3.13;;
33154;SDS011;19511;42.682;23.332;2023-03-23T13:32:18;9.80;;;3.58;;
33154;SDS011;19511;42.682;23.332;2023-03-23T13:35:00;6.40;;;3.40;;
33154;SDS011;19511;42.682;23.332;2023-03-23T13:37:28;6.82;;;3.33;;
33154;SDS011;19511;42.682;23.332;2023-03-23T13:39:55;5.30;;;3.17;;
33154;SDS011;19511;42.682;23.332;2023-03-23T13:42:27;6.95;;;2.67;;
33154;SDS011;19511;42.682;23.332;2023-03-23T13:47:41;13.45;;;3.28;;
33154;SDS011;19511;42.682;23.332;2023-03-23T13:55:21;7.47;;;3.63;;
33154;SDS011;19511;42.682;23.332;2023-03-23T13:57:55;5.15;;;3.20;;
33154;SDS011;19511;42.682;23.332;2023-03-23T14:03:14;7.75;;;3.13;;
33154;SDS011;19511;42.682;23.332;2023-03-23T14:05:49;6.47;;;3.20;;
33154;SDS011;19511;42.682;23.332;2023-03-23T14:16:19;4.45;;;2.40;;
33154;SDS011;19511;42.682;23.332;2023-03-23T14:21:22;8.38;;;2.58;;
33154;SDS011;19511;42.682;23.332;2023-03-23T14:24:32;4.80;;;2.92;;
33154;SDS011;19511;42.682;23.332;2023-03-23T14:27:00;3.38;;;2.40;;
33154;SDS011;19511;42.682;23.332;2023-03-23T14:29:57;7.22;;;3.38;;
33154;SDS011;19511;42.682;23.332;2023-03-23T14:32:25;4.80;;;2.72;;
33154;SDS011;19511;42.682;23.332;2023-03-23T14:34:52;6.63;;;3.55;;
33154;SDS011;19511;42.682;23.332;2023-03-23T14:37:23;6.60;;;3.17;;
33154;SDS011;19511;42.682;23.332;2023-03-23T14:39:52;8.05;;;3.10;;
33154;SDS011;19511;42.682;23.332;2023-03-23T14:42:29;6.88;;;3.10;;
33154;SDS011;19511;42.682;23.332;2023-03-23T14:44:56;6.90;;;3.35;;
33154;SDS011;19511;42.682;23.332;2023-03-23T14:50:00;6.47;;;4.00;;
33154;SDS011;19511;42.682;23.332;2023-03-23T14:52:29;10.32;;;3.22;;
33154;SDS011;19511;42.682;23.332;2023-03-23T14:58:12;4.97;;;2.80;;
33154;SDS011;19511;42.682;23.332;2023-03-23T15:00:42;8.57;;;3.60;;
33154;SDS011;19511;42.682;23.332;2023-03-23T15:03:12;4.88;;;3.17;;
33154;SDS011;19511;42.682;23.332;2023-03-23T15:05:53;6.60;;;3.92;;
33154;SDS011;19511;42.682;23.332;2023-03-23T15:08:28;5.30;;;2.90;;
33154;SDS011;19511;42.682;23.332;2023-03-23T15:11:11;4.50;;;2.63;;
33154;SDS011;19511;42.682;23.332;2023-03-23T15:13:51;5.43;;;2.83;;
33154;SDS011;19511;42.682;23.332;2023-03-23T15:16:21;10.73;;;3.63;;
33154;SDS011;19511;42.682;23.332;2023-03-23T15:18:56;6.85;;;3.45;;
33154;SDS011;19511;42.682;23.332;2023-03-23T15:21:34;6.10;;;3.22;;
33154;SDS011;19511;42.682;23.332;2023-03-23T15:29:59;7.15;;;4.45;;
33154;SDS011;19511;42.682;23.332;2023-03-23T15:32:37;10.13;;;3.88;;
33154;SDS011;19511;42.682;23.332;2023-03-23T15:35:11;8.60;;;4.35;;
33154;SDS011;19511;42.682;23.332;2023-03-23T15:37:41;6.18;;;3.17;;
33154;SDS011;19511;42.682;23.332;2023-03-23T15:40:19;8.38;;;3.20;;
33154;SDS011;19511;42.682;23.332;2023-03-23T15:42:49;6.68;;;3.75;;
33154;SDS011;19511;42.682;23.332;2023-03-23T15:45:30;6.45;;;3.38;;
33154;SDS011;19511;42.682;23.332;2023-03-23T15:47:57;7.28;;;3.45;;
33154;SDS011;19511;42.682;23.332;2023-03-23T15:52:55;4.63;;;3.00;;
33154;SDS011;19511;42.682;23.332;2023-03-23T15:55:34;8.52;;;2.50;;
33154;SDS011;19511;42.682;23.332;2023-03-23T15:58:07;5.13;;;3.20;;
33154;SDS011;19511;42.682;23.332;2023-03-23T16:00:36;6.50;;;3.25;;
33154;SDS011;19511;42.682;23.332;2023-03-23T16:03:03;6.60;;;3.58;;
33154;SDS011;19511;42.682;23.332;2023-03-23T16:05:31;8.27;;;3.28;;
33154;SDS011;19511;42.682;23.332;2023-03-23T16:07:57;4.50;;;2.47;;
33154;SDS011;19511;42.682;23.332;2023-03-23T16:10:23;9.43;;;3.60;;
33154;SDS011;19511;42.682;23.332;2023-03-23T16:12:50;6.38;;;2.83;;
33154;SDS011;19511;42.682;23.332;2023-03-23T16:15:16;7.25;;;3.17;;
33154;SDS011;19511;42.682;23.332;2023-03-23T16:17:42;5.85;;;3.15;;
33154;SDS011;19511;42.682;23.332;2023-03-23T16:20:12;6.65;;;3.75;;
33154;SDS011;19511;42.682;23.332;2023-03-23T16:22:39;5.28;;;2.92;;
33154;SDS011;19511;42.682;23.332;2023-03-23T16:25:05;6.78;;;3.35;;
33154;SDS011;19511;42.682;23.332;2023-03-23T16:27:31;7.13;;;3.78;;
33154;SDS011;19511;42.682;23.332;2023-03-23T16:29:57;5.38;;;2.97;;
33154;SDS011;19511;42.682;23.332;2023-03-23T16:32:24;7.30;;;3.72;;
33154;SDS011;19511;42.682;23.332;2023-03-23T16:34:50;6.68;;;3.75;;
33154;SDS011;19511;42.682;23.332;2023-03-23T16:37:16;6.20;;;2.88;;
33154;SDS011;19511;42.682;23.332;2023-03-23T16:39:42;5.63;;;3.03;;
33154;SDS011;19511;42.682;23.332;2023-03-23T16:42:07;7.57;;;3.40;;
33154;SDS011;19511;42.682;23.332;2023-03-23T16:44:33;4.75;;;2.78;;
33154;SDS011;19511;42.682;23.332;2023-03-23T16:46:59;9.73;;;3.53;;
33154;SDS011;19511;42.682;23.332;2023-03-23T16:49:24;10.75;;;3.33;;
33154;SDS011;19511;42.682;23.332;2023-03-23T16:51:50;4.65;;;2.80;;
33154;SDS011;19511;42.682;23.332;2023-03-23T16:54:15;10.35;;;3.53;;
33154;SDS011;19511;42.682;23.332;2023-03-23T16:56:41;7.68;;;3.40;;
33154;SDS011;19511;42.682;23.332;2023-03-23T16:59:10;6.38;;;3.38;;
33154;SDS011;19511;42.682;23.332;2023-03-23T17:01:36;8.73;;;4.32;;
33154;SDS011;19511;42.682;23.332;2023-03-23T17:04:02;10.63;;;4.50;;
33154;SDS011;19511;42.682;23.332;2023-03-23T17:06:30;11.07;;;3.85;;
33154;SDS011;19511;42.682;23.332;2023-03-23T17:08:55;10.75;;;3.50;;
33154;SDS011;19511;42.682;23.332;2023-03-23T17:11:20;6.05;;;3.25;;